sensor_id;sensor_type;location;lat;lon;timestamp;temperature;humidity
7014;DHT22;3547;50.774;12.918;2022-12-31T00:01:50;10.40;99.90
7014;DHT22;3547;50.774;12.918;2022-12-31T00:04:16;10.40;99.90
7014;DHT22;3547;50.774;12.918;2022-12-31T00:06:42;10.30;99.90
7014;DHT22;3547;50.774;12.918;2022-12-31T00:09:09;10.30;99.90
7014;DHT22;3547;50.774;12.918;2022-12-31T00:11:36;10.40;99.90
7014;DHT22;3547;50.774;12.918;2022-12-31T00:14:03;10.40;99.90
7014;DHT22;3547;50.774;12.918;2022-12-31T00:16:35;10.30;99.90
7014;DHT22;3547;50.774;12.918;2022-12-31T00:19:02;10.30;99.90
7014;DHT22;3547;50.774;12.918;2022-12-31T00:21:30;10.40;99.90
7014;DHT22;3547;50.774;12.918;2022-12-31T00:23:57;10.40;99.90
7014;DHT22;3547;50.774;12.918;2022-12-31T00:26:26;10.40;99.90
7014;DHT22;3547;50.774;12.918;2022-12-31T00:28:54;10.40;99.90
7014;DHT22;3547;50.774;12.918;2022-12-31T00:31:23;10.50;99.90
7014;DHT22;3547;50.774;12.918;2022-12-31T00:33:50;10.50;99.90
7014;DHT22;3547;50.774;12.918;2022-12-31T00:36:22;10.50;99.90
7014;DHT22;3547;50.774;12.918;2022-12-31T00:38:50;10.50;99.90
7014;DHT22;3547;50.774;12.918;2022-12-31T00:41:17;10.60;99.90
7014;DHT22;3547;50.774;12.918;2022-12-31T00:43:44;10.60;99.90
7014;DHT22;3547;50.774;12.918;2022-12-31T00:46:11;10.70;99.90
7014;DHT22;3547;50.774;12.918;2022-12-31T00:48:38;10.70;99.90
7014;DHT22;3547;50.774;12.918;2022-12-31T00:51:06;10.70;99.90
7014;DHT22;3547;50.774;12.918;2022-12-31T00:53:33;10.70;99.90
7014;DHT22;3547;50.774;12.918;2022-12-31T00:56:00;10.70;99.90
7014;DHT22;3547;50.774;12.918;2022-12-31T00:58:27;10.70;99.90
7014;DHT22;3547;50.774;12.918;2022-12-31T01:00:53;10.70;99.90
7014;DHT22;3547;50.774;12.918;2022-12-31T01:03:33;10.80;99.90
7014;DHT22;3547;50.774;12.918;2022-12-31T01:06:00;10.80;99.90
7014;DHT22;3547;50.774;12.918;2022-12-31T01:08:26;10.80;99.90
7014;DHT22;3547;50.774;12.918;2022-12-31T01:10:52;10.80;99.90
7014;DHT22;3547;50.774;12.918;2022-12-31T01:13:37;10.80;99.90
7014;DHT22;3547;50.774;12.918;2022-12-31T01:16:11;10.90;99.90
7014;DHT22;3547;50.774;12.918;2022-12-31T01:18:51;10.90;99.90
7014;DHT22;3547;50.774;12.918;2022-12-31T01:21:18;10.90;99.90
7014;DHT22;3547;50.774;12.918;2022-12-31T01:23:44;10.90;99.90
7014;DHT22;3547;50.774;12.918;2022-12-31T01:26:12;10.90;99.90
7014;DHT22;3547;50.774;12.918;2022-12-31T01:28:40;10.90;99.90
7014;DHT22;3547;50.774;12.918;2022-12-31T01:31:09;10.90;99.90
7014;DHT22;3547;50.774;12.918;2022-12-31T01:33:36;10.90;99.90
7014;DHT22;3547;50.774;12.918;2022-12-31T01:36:28;10.90;99.90
7014;DHT22;3547;50.774;12.918;2022-12-31T01:38:55;10.90;99.90
7014;DHT22;3547;50.774;12.918;2022-12-31T01:41:31;11.00;99.90
7014;DHT22;3547;50.774;12.918;2022-12-31T01:44:01;11.10;99.90
7014;DHT22;3547;50.774;12.918;2022-12-31T01:46:38;11.10;99.90
7014;DHT22;3547;50.774;12.918;2022-12-31T01:49:36;11.10;99.90
7014;DHT22;3547;50.774;12.918;2022-12-31T01:52:16;11.10;99.90
7014;DHT22;3547;50.774;12.918;2022-12-31T01:54:54;11.20;99.90
7014;DHT22;3547;50.774;12.918;2022-12-31T01:57:21;11.20;99.90
7014;DHT22;3547;50.774;12.918;2022-12-31T01:59:49;11.30;99.90
7014;DHT22;3547;50.774;12.918;2022-12-31T02:02:15;11.30;99.90
7014;DHT22;3547;50.774;12.918;2022-12-31T02:04:42;11.40;99.90
7014;DHT22;3547;50.774;12.918;2022-12-31T02:07:09;11.40;99.90
7014;DHT22;3547;50.774;12.918;2022-12-31T02:09:38;11.40;99.90
7014;DHT22;3547;50.774;12.918;2022-12-31T02:12:05;11.40;99.90
7014;DHT22;3547;50.774;12.918;2022-12-31T02:14:35;11.50;99.90
7014;DHT22;3547;50.774;12.918;2022-12-31T02:31:25;11.50;99.90
7014;DHT22;3547;50.774;12.918;2022-12-31T02:34:20;11.50;99.90
7014;DHT22;3547;50.774;12.918;2022-12-31T02:36:49;11.70;99.90
7014;DHT22;3547;50.774;12.918;2022-12-31T02:39:17;11.60;99.90
7014;DHT22;3547;50.774;12.918;2022-12-31T02:41:47;11.60;99.90
7014;DHT22;3547;50.774;12.918;2022-12-31T02:44:28;11.60;99.90
7014;DHT22;3547;50.774;12.918;2022-12-31T02:55:16;11.70;99.90
7014;DHT22;3547;50.774;12.918;2022-12-31T03:00:20;11.80;99.90
7014;DHT22;3547;50.774;12.918;2022-12-31T03:03:06;11.80;99.90
7014;DHT22;3547;50.774;12.918;2022-12-31T03:05:37;11.90;99.90
7014;DHT22;3547;50.774;12.918;2022-12-31T03:08:05;12.00;99.90
7014;DHT22;3547;50.774;12.918;2022-12-31T03:10:31;12.00;99.90
7014;DHT22;3547;50.774;12.918;2022-12-31T03:12:57;12.00;99.90
7014;DHT22;3547;50.774;12.918;2022-12-31T03:15:30;12.10;99.90
7014;DHT22;3547;50.774;12.918;2022-12-31T03:20:37;12.10;99.90
7014;DHT22;3547;50.774;12.918;2022-12-31T03:23:36;12.10;99.90
7014;DHT22;3547;50.774;12.918;2022-12-31T03:26:04;12.10;99.90
7014;DHT22;3547;50.774;12.918;2022-12-31T03:28:39;12.20;99.90
7014;DHT22;3547;50.774;12.918;2022-12-31T03:31:06;12.10;99.90
7014;DHT22;3547;50.774;12.918;2022-12-31T03:33:38;12.10;99.90
7014;DHT22;3547;50.774;12.918;2022-12-31T03:36:07;12.10;99.90
7014;DHT22;3547;50.774;12.918;2022-12-31T03:38:34;12.20;99.90
7014;DHT22;3547;50.774;12.918;2022-12-31T03:41:00;12.20;99.90
7014;DHT22;3547;50.774;12.918;2022-12-31T03:43:26;12.20;99.90
7014;DHT22;3547;50.774;12.918;2022-12-31T03:45:53;12.20;99.90
7014;DHT22;3547;50.774;12.918;2022-12-31T03:48:21;12.30;99.90
7014;DHT22;3547;50.774;12.918;2022-12-31T03:50:47;12.50;99.90
7014;DHT22;3547;50.774;12.918;2022-12-31T03:53:13;12.40;99.90
7014;DHT22;3547;50.774;12.918;2022-12-31T03:55:40;12.30;99.90
7014;DHT22;3547;50.774;12.918;2022-12-31T03:58:06;12.30;99.90
7014;DHT22;3547;50.774;12.918;2022-12-31T04:00:32;12.30;99.90
7014;DHT22;3547;50.774;12.918;2022-12-31T04:02:59;12.50;99.90
7014;DHT22;3547;50.774;12.918;2022-12-31T04:05:25;12.40;99.90
7014;DHT22;3547;50.774;12.918;2022-12-31T04:07:51;12.40;99.90
7014;DHT22;3547;50.774;12.918;2022-12-31T04:10:18;12.40;99.90
7014;DHT22;3547;50.774;12.918;2022-12-31T04:12:45;12.40;99.90
7014;DHT22;3547;50.774;12.918;2022-12-31T04:15:16;12.40;99.90
7014;DHT22;3547;50.774;12.918;2022-12-31T04:17:42;12.50;99.90
7014;DHT22;3547;50.774;12.918;2022-12-31T04:20:09;12.50;99.90
7014;DHT22;3547;50.774;12.918;2022-12-31T04:22:36;12.40;99.90
7014;DHT22;3547;50.774;12.918;2022-12-31T04:25:02;12.50;99.90
7014;DHT22;3547;50.774;12.918;2022-12-31T04:27:29;12.40;99.90
7014;DHT22;3547;50.774;12.918;2022-12-31T04:29:55;12.40;99.90
7014;DHT22;3547;50.774;12.918;2022-12-31T04:32:21;12.50;99.90
7014;DHT22;3547;50.774;12.918;2022-12-31T04:34:47;12.40;99.90
7014;DHT22;3547;50.774;12.918;2022-12-31T04:37:13;12.40;99.90
7014;DHT22;3547;50.774;12.918;2022-12-31T04:39:39;12.30;99.90
7014;DHT22;3547;50.774;12.918;2022-12-31T04:42:05;12.40;99.90
7014;DHT22;3547;50.774;12.918;2022-12-31T04:44:31;12.40;99.90
7014;DHT22;3547;50.774;12.918;2022-12-31T04:46:59;12.40;99.90
7014;DHT22;3547;50.774;12.918;2022-12-31T04:49:25;12.40;99.90
7014;DHT22;3547;50.774;12.918;2022-12-31T04:51:52;12.40;99.90
7014;DHT22;3547;50.774;12.918;2022-12-31T04:54:18;12.30;99.90
7014;DHT22;3547;50.774;12.918;2022-12-31T04:56:44;12.30;99.90
7014;DHT22;3547;50.774;12.918;2022-12-31T04:59:10;12.30;99.90
7014;DHT22;3547;50.774;12.918;2022-12-31T05:04:59;12.20;99.90
7014;DHT22;3547;50.774;12.918;2022-12-31T05:07:25;12.20;99.90
7014;DHT22;3547;50.774;12.918;2022-12-31T05:09:51;12.30;99.90
7014;DHT22;3547;50.774;12.918;2022-12-31T05:12:17;12.30;99.90
7014;DHT22;3547;50.774;12.918;2022-12-31T05:14:43;12.40;99.90
7014;DHT22;3547;50.774;12.918;2022-12-31T05:17:09;12.60;99.90
7014;DHT22;3547;50.774;12.918;2022-12-31T05:19:36;12.60;99.90
7014;DHT22;3547;50.774;12.918;2022-12-31T05:22:02;12.60;99.90
7014;DHT22;3547;50.774;12.918;2022-12-31T05:24:46;12.70;99.90
7014;DHT22;3547;50.774;12.918;2022-12-31T05:27:13;12.80;99.90
7014;DHT22;3547;50.774;12.918;2022-12-31T05:29:39;12.80;99.90
7014;DHT22;3547;50.774;12.918;2022-12-31T05:32:06;12.80;99.90
7014;DHT22;3547;50.774;12.918;2022-12-31T05:34:32;12.70;99.90
7014;DHT22;3547;50.774;12.918;2022-12-31T05:36:58;12.60;99.90
7014;DHT22;3547;50.774;12.918;2022-12-31T05:39:25;12.70;99.90
7014;DHT22;3547;50.774;12.918;2022-12-31T05:41:51;12.60;99.90
7014;DHT22;3547;50.774;12.918;2022-12-31T05:44:17;12.60;99.90
7014;DHT22;3547;50.774;12.918;2022-12-31T05:46:43;12.50;99.90
7014;DHT22;3547;50.774;12.918;2022-12-31T05:49:09;12.50;99.90
7014;DHT22;3547;50.774;12.918;2022-12-31T05:51:35;12.50;99.90
7014;DHT22;3547;50.774;12.918;2022-12-31T05:54:01;12.50;99.90
7014;DHT22;3547;50.774;12.918;2022-12-31T05:56:27;12.50;99.90
7014;DHT22;3547;50.774;12.918;2022-12-31T05:58:54;12.40;99.90
7014;DHT22;3547;50.774;12.918;2022-12-31T06:01:20;12.50;99.90
7014;DHT22;3547;50.774;12.918;2022-12-31T06:03:46;12.50;99.90
7014;DHT22;3547;50.774;12.918;2022-12-31T06:06:12;12.50;99.90
7014;DHT22;3547;50.774;12.918;2022-12-31T06:08:38;12.40;99.90
7014;DHT22;3547;50.774;12.918;2022-12-31T06:11:04;12.40;99.90
7014;DHT22;3547;50.774;12.918;2022-12-31T06:13:31;12.50;99.90
7014;DHT22;3547;50.774;12.918;2022-12-31T06:15:57;12.60;99.90
7014;DHT22;3547;50.774;12.918;2022-12-31T06:18:24;12.60;99.90
7014;DHT22;3547;50.774;12.918;2022-12-31T06:20:50;12.60;99.90
7014;DHT22;3547;50.774;12.918;2022-12-31T06:23:19;12.60;99.90
7014;DHT22;3547;50.774;12.918;2022-12-31T06:25:49;12.60;99.90
7014;DHT22;3547;50.774;12.918;2022-12-31T06:28:15;12.60;99.90
7014;DHT22;3547;50.774;12.918;2022-12-31T06:30:41;12.60;99.90
7014;DHT22;3547;50.774;12.918;2022-12-31T06:33:08;12.70;99.90
7014;DHT22;3547;50.774;12.918;2022-12-31T06:35:34;12.70;99.90
7014;DHT22;3547;50.774;12.918;2022-12-31T06:38:00;12.80;99.90
7014;DHT22;3547;50.774;12.918;2022-12-31T06:40:26;12.80;99.90
7014;DHT22;3547;50.774;12.918;2022-12-31T06:42:53;12.90;99.90
7014;DHT22;3547;50.774;12.918;2022-12-31T06:45:19;12.90;99.90
7014;DHT22;3547;50.774;12.918;2022-12-31T06:47:46;13.10;99.90
7014;DHT22;3547;50.774;12.918;2022-12-31T06:50:12;13.10;99.90
7014;DHT22;3547;50.774;12.918;2022-12-31T06:52:38;13.20;99.90
7014;DHT22;3547;50.774;12.918;2022-12-31T06:55:04;13.20;99.90
7014;DHT22;3547;50.774;12.918;2022-12-31T06:57:31;13.20;99.90
7014;DHT22;3547;50.774;12.918;2022-12-31T06:59:57;13.10;99.90
7014;DHT22;3547;50.774;12.918;2022-12-31T07:05:11;13.10;99.90
7014;DHT22;3547;50.774;12.918;2022-12-31T07:21:38;13.30;99.90
7014;DHT22;3547;50.774;12.918;2022-12-31T07:24:06;13.30;99.90
7014;DHT22;3547;50.774;12.918;2022-12-31T07:29:37;13.50;99.90
7014;DHT22;3547;50.774;12.918;2022-12-31T07:32:21;13.60;99.90
7014;DHT22;3547;50.774;12.918;2022-12-31T07:35:01;13.50;99.90
7014;DHT22;3547;50.774;12.918;2022-12-31T07:37:54;13.60;99.90
7014;DHT22;3547;50.774;12.918;2022-12-31T07:46:16;13.50;99.90
7014;DHT22;3547;50.774;12.918;2022-12-31T07:48:44;13.50;99.90
7014;DHT22;3547;50.774;12.918;2022-12-31T07:51:11;13.70;99.90
7014;DHT22;3547;50.774;12.918;2022-12-31T07:53:37;13.60;99.90
7014;DHT22;3547;50.774;12.918;2022-12-31T07:56:06;13.70;99.90
7014;DHT22;3547;50.774;12.918;2022-12-31T08:01:13;13.80;99.90
7014;DHT22;3547;50.774;12.918;2022-12-31T08:12:17;14.00;99.90
7014;DHT22;3547;50.774;12.918;2022-12-31T08:14:46;14.10;99.90
7014;DHT22;3547;50.774;12.918;2022-12-31T08:17:14;14.10;99.90
7014;DHT22;3547;50.774;12.918;2022-12-31T08:19:41;14.10;99.90
7014;DHT22;3547;50.774;12.918;2022-12-31T08:31:00;14.30;99.90
7014;DHT22;3547;50.774;12.918;2022-12-31T08:36:23;14.30;99.90
7014;DHT22;3547;50.774;12.918;2022-12-31T08:39:02;14.40;99.90
7014;DHT22;3547;50.774;12.918;2022-12-31T08:41:43;14.40;99.90
7014;DHT22;3547;50.774;12.918;2022-12-31T08:49:58;14.40;99.90
7014;DHT22;3547;50.774;12.918;2022-12-31T08:52:25;14.40;99.90
7014;DHT22;3547;50.774;12.918;2022-12-31T08:54:52;14.30;99.90
7014;DHT22;3547;50.774;12.918;2022-12-31T08:57:41;14.40;99.90
7014;DHT22;3547;50.774;12.918;2022-12-31T09:00:14;14.40;99.90
7014;DHT22;3547;50.774;12.918;2022-12-31T09:05:28;14.50;99.90
7014;DHT22;3547;50.774;12.918;2022-12-31T09:08:24;14.50;99.90
7014;DHT22;3547;50.774;12.918;2022-12-31T09:10:58;14.50;99.90
7014;DHT22;3547;50.774;12.918;2022-12-31T09:13:41;14.60;99.90
7014;DHT22;3547;50.774;12.918;2022-12-31T09:16:18;14.60;99.90
7014;DHT22;3547;50.774;12.918;2022-12-31T09:18:47;14.60;99.90
7014;DHT22;3547;50.774;12.918;2022-12-31T09:21:14;14.60;99.90
7014;DHT22;3547;50.774;12.918;2022-12-31T09:23:41;14.70;99.90
7014;DHT22;3547;50.774;12.918;2022-12-31T09:34:57;14.80;99.90
7014;DHT22;3547;50.774;12.918;2022-12-31T09:37:37;14.80;99.90
7014;DHT22;3547;50.774;12.918;2022-12-31T09:48:49;14.90;99.90
7014;DHT22;3547;50.774;12.918;2022-12-31T09:51:29;14.80;99.90
7014;DHT22;3547;50.774;12.918;2022-12-31T09:54:11;14.90;99.90
7014;DHT22;3547;50.774;12.918;2022-12-31T10:11:02;15.20;99.90
7014;DHT22;3547;50.774;12.918;2022-12-31T10:28:04;15.30;99.90
7014;DHT22;3547;50.774;12.918;2022-12-31T10:30:33;15.30;99.90
7014;DHT22;3547;50.774;12.918;2022-12-31T10:33:07;15.30;99.90
7014;DHT22;3547;50.774;12.918;2022-12-31T10:43:48;15.40;99.90
7014;DHT22;3547;50.774;12.918;2022-12-31T10:46:35;15.50;99.90
7014;DHT22;3547;50.774;12.918;2022-12-31T11:00:22;15.70;99.90
7014;DHT22;3547;50.774;12.918;2022-12-31T11:03:05;15.70;99.90
7014;DHT22;3547;50.774;12.918;2022-12-31T11:11:07;15.60;99.90
7014;DHT22;3547;50.774;12.918;2022-12-31T11:16:55;15.80;99.90
7014;DHT22;3547;50.774;12.918;2022-12-31T11:19:38;15.90;99.90
7014;DHT22;3547;50.774;12.918;2022-12-31T11:27:55;15.90;99.90
7014;DHT22;3547;50.774;12.918;2022-12-31T11:42:02;16.20;99.90
7014;DHT22;3547;50.774;12.918;2022-12-31T11:44:48;16.20;99.90
7014;DHT22;3547;50.774;12.918;2022-12-31T11:50:40;16.20;99.90
7014;DHT22;3547;50.774;12.918;2022-12-31T11:58:32;16.10;99.90
7014;DHT22;3547;50.774;12.918;2022-12-31T12:01:09;16.10;99.90
7014;DHT22;3547;50.774;12.918;2022-12-31T12:03:37;16.10;99.90
7014;DHT22;3547;50.774;12.918;2022-12-31T12:06:10;16.10;99.90
7014;DHT22;3547;50.774;12.918;2022-12-31T12:08:37;16.10;99.90
7014;DHT22;3547;50.774;12.918;2022-12-31T12:11:07;16.20;99.90
7014;DHT22;3547;50.774;12.918;2022-12-31T12:13:34;16.20;99.90
7014;DHT22;3547;50.774;12.918;2022-12-31T12:16:02;16.20;99.90
7014;DHT22;3547;50.774;12.918;2022-12-31T12:21:20;16.30;99.90
7014;DHT22;3547;50.774;12.918;2022-12-31T12:24:31;16.20;99.90
7014;DHT22;3547;50.774;12.918;2022-12-31T12:26:50;16.20;99.90
7014;DHT22;3547;50.774;12.918;2022-12-31T12:29:20;16.30;99.90
7014;DHT22;3547;50.774;12.918;2022-12-31T12:31:59;16.40;99.90
7014;DHT22;3547;50.774;12.918;2022-12-31T12:34:37;16.30;99.90
7014;DHT22;3547;50.774;12.918;2022-12-31T12:37:06;16.40;99.90
7014;DHT22;3547;50.774;12.918;2022-12-31T12:39:43;16.40;99.90
7014;DHT22;3547;50.774;12.918;2022-12-31T12:42:19;16.40;99.90
7014;DHT22;3547;50.774;12.918;2022-12-31T12:44:45;16.40;99.90
7014;DHT22;3547;50.774;12.918;2022-12-31T12:47:14;16.50;99.90
7014;DHT22;3547;50.774;12.918;2022-12-31T12:49:47;16.50;99.90
7014;DHT22;3547;50.774;12.918;2022-12-31T12:58:47;16.50;99.90
7014;DHT22;3547;50.774;12.918;2022-12-31T13:09:46;16.40;99.90
7014;DHT22;3547;50.774;12.918;2022-12-31T13:12:37;16.40;99.90
7014;DHT22;3547;50.774;12.918;2022-12-31T13:15:23;16.30;99.90
7014;DHT22;3547;50.774;12.918;2022-12-31T13:20:52;16.20;99.90
7014;DHT22;3547;50.774;12.918;2022-12-31T13:23:45;16.10;99.90
7014;DHT22;3547;50.774;12.918;2022-12-31T13:26:30;16.00;99.90
7014;DHT22;3547;50.774;12.918;2022-12-31T13:28:57;16.00;99.90
7014;DHT22;3547;50.774;12.918;2022-12-31T13:31:32;15.90;99.90
7014;DHT22;3547;50.774;12.918;2022-12-31T13:34:05;15.90;99.90
7014;DHT22;3547;50.774;12.918;2022-12-31T13:36:34;15.90;99.90
7014;DHT22;3547;50.774;12.918;2022-12-31T13:39:10;15.90;99.90
7014;DHT22;3547;50.774;12.918;2022-12-31T13:41:58;15.90;99.90
7014;DHT22;3547;50.774;12.918;2022-12-31T13:44:31;15.90;99.90
7014;DHT22;3547;50.774;12.918;2022-12-31T13:47:10;15.80;99.90
7014;DHT22;3547;50.774;12.918;2022-12-31T13:49:53;15.70;99.90
7014;DHT22;3547;50.774;12.918;2022-12-31T13:59:57;15.60;99.90
7014;DHT22;3547;50.774;12.918;2022-12-31T14:02:43;15.60;99.90
7014;DHT22;3547;50.774;12.918;2022-12-31T14:07:58;15.60;99.90
7014;DHT22;3547;50.774;12.918;2022-12-31T14:14:14;15.60;99.90
7014;DHT22;3547;50.774;12.918;2022-12-31T14:20:05;15.50;99.90
7014;DHT22;3547;50.774;12.918;2022-12-31T14:25:56;15.50;99.90
7014;DHT22;3547;50.774;12.918;2022-12-31T14:28:34;15.50;99.90
7014;DHT22;3547;50.774;12.918;2022-12-31T14:31:21;15.40;99.90
7014;DHT22;3547;50.774;12.918;2022-12-31T14:34:12;15.40;99.90
7014;DHT22;3547;50.774;12.918;2022-12-31T14:47:20;15.30;99.90
7014;DHT22;3547;50.774;12.918;2022-12-31T14:52:29;15.30;99.90
7014;DHT22;3547;50.774;12.918;2022-12-31T15:00:19;15.30;99.90
7014;DHT22;3547;50.774;12.918;2022-12-31T15:02:59;15.20;99.90
7014;DHT22;3547;50.774;12.918;2022-12-31T15:05:35;15.20;99.90
7014;DHT22;3547;50.774;12.918;2022-12-31T15:08:20;15.20;99.90
7014;DHT22;3547;50.774;12.918;2022-12-31T15:19:05;15.00;99.90
7014;DHT22;3547;50.774;12.918;2022-12-31T15:22:15;15.00;99.90
7014;DHT22;3547;50.774;12.918;2022-12-31T15:24:46;14.90;99.90
7014;DHT22;3547;50.774;12.918;2022-12-31T15:27:34;14.90;99.90
7014;DHT22;3547;50.774;12.918;2022-12-31T15:30:03;14.80;99.90
7014;DHT22;3547;50.774;12.918;2022-12-31T15:32:35;14.80;99.90
7014;DHT22;3547;50.774;12.918;2022-12-31T15:35:29;14.80;99.90
7014;DHT22;3547;50.774;12.918;2022-12-31T15:38:25;14.70;99.90
7014;DHT22;3547;50.774;12.918;2022-12-31T15:40:53;14.70;99.90
7014;DHT22;3547;50.774;12.918;2022-12-31T15:45:52;14.60;99.90
7014;DHT22;3547;50.774;12.918;2022-12-31T15:48:49;14.60;99.90
7014;DHT22;3547;50.774;12.918;2022-12-31T15:51:25;14.60;99.90
7014;DHT22;3547;50.774;12.918;2022-12-31T15:53:55;14.60;99.90
7014;DHT22;3547;50.774;12.918;2022-12-31T15:56:40;14.60;99.90
7014;DHT22;3547;50.774;12.918;2022-12-31T15:59:17;14.60;99.90
7014;DHT22;3547;50.774;12.918;2022-12-31T16:01:44;14.60;99.90
7014;DHT22;3547;50.774;12.918;2022-12-31T16:04:21;14.60;99.90
7014;DHT22;3547;50.774;12.918;2022-12-31T16:06:48;14.50;99.50
7014;DHT22;3547;50.774;12.918;2022-12-31T16:09:30;14.50;99.90
7014;DHT22;3547;50.774;12.918;2022-12-31T16:12:06;14.40;99.90
7014;DHT22;3547;50.774;12.918;2022-12-31T16:14:42;14.40;99.90
7014;DHT22;3547;50.774;12.918;2022-12-31T16:17:33;14.40;99.90
7014;DHT22;3547;50.774;12.918;2022-12-31T16:20:01;14.40;99.90
7014;DHT22;3547;50.774;12.918;2022-12-31T16:22:35;14.40;99.90
7014;DHT22;3547;50.774;12.918;2022-12-31T16:25:03;14.40;99.90
7014;DHT22;3547;50.774;12.918;2022-12-31T16:27:30;14.40;99.90
7014;DHT22;3547;50.774;12.918;2022-12-31T16:30:03;14.40;99.90
7014;DHT22;3547;50.774;12.918;2022-12-31T16:32:38;14.40;99.90
7014;DHT22;3547;50.774;12.918;2022-12-31T16:35:28;14.40;99.90
7014;DHT22;3547;50.774;12.918;2022-12-31T16:38:14;14.40;99.90
7014;DHT22;3547;50.774;12.918;2022-12-31T16:41:27;14.30;99.90
7014;DHT22;3547;50.774;12.918;2022-12-31T16:43:30;14.30;99.90
7014;DHT22;3547;50.774;12.918;2022-12-31T16:46:27;14.30;99.90
7014;DHT22;3547;50.774;12.918;2022-12-31T16:49:06;14.40;98.00
7014;DHT22;3547;50.774;12.918;2022-12-31T16:51:41;14.30;99.50
7014;DHT22;3547;50.774;12.918;2022-12-31T16:54:18;14.30;99.70
7014;DHT22;3547;50.774;12.918;2022-12-31T16:56:45;14.30;99.20
7014;DHT22;3547;50.774;12.918;2022-12-31T16:59:14;14.30;98.70
7014;DHT22;3547;50.774;12.918;2022-12-31T17:01:43;14.30;98.70
7014;DHT22;3547;50.774;12.918;2022-12-31T17:04:13;14.30;98.00
7014;DHT22;3547;50.774;12.918;2022-12-31T17:06:42;14.30;96.70
7014;DHT22;3547;50.774;12.918;2022-12-31T17:09:14;14.40;96.70
7014;DHT22;3547;50.774;12.918;2022-12-31T17:11:56;14.40;96.60
7014;DHT22;3547;50.774;12.918;2022-12-31T17:14:27;14.50;95.70
7014;DHT22;3547;50.774;12.918;2022-12-31T17:17:07;14.50;93.00
7014;DHT22;3547;50.774;12.918;2022-12-31T17:22:31;14.50;93.00
7014;DHT22;3547;50.774;12.918;2022-12-31T17:25:01;14.50;92.80
7014;DHT22;3547;50.774;12.918;2022-12-31T17:27:29;14.40;92.70
7014;DHT22;3547;50.774;12.918;2022-12-31T17:30:19;14.50;90.50
7014;DHT22;3547;50.774;12.918;2022-12-31T17:32:46;14.50;87.00
7014;DHT22;3547;50.774;12.918;2022-12-31T17:35:33;14.40;89.90
7014;DHT22;3547;50.774;12.918;2022-12-31T17:40:49;14.40;86.30
7014;DHT22;3547;50.774;12.918;2022-12-31T17:43:21;14.30;80.80
7014;DHT22;3547;50.774;12.918;2022-12-31T17:45:49;14.20;78.80
7014;DHT22;3547;50.774;12.918;2022-12-31T17:48:18;14.30;82.50
7014;DHT22;3547;50.774;12.918;2022-12-31T17:50:49;14.30;83.00
7014;DHT22;3547;50.774;12.918;2022-12-31T17:53:16;14.20;79.90
7014;DHT22;3547;50.774;12.918;2022-12-31T17:55:54;14.20;79.40
7014;DHT22;3547;50.774;12.918;2022-12-31T17:58:28;14.20;73.60
7014;DHT22;3547;50.774;12.918;2022-12-31T18:00:55;14.20;74.10
7014;DHT22;3547;50.774;12.918;2022-12-31T18:03:21;14.00;63.20
7014;DHT22;3547;50.774;12.918;2022-12-31T18:05:47;14.00;64.60
7014;DHT22;3547;50.774;12.918;2022-12-31T18:08:13;14.00;66.00
7014;DHT22;3547;50.774;12.918;2022-12-31T18:10:41;14.00;72.10
7014;DHT22;3547;50.774;12.918;2022-12-31T18:13:22;14.00;65.20
7014;DHT22;3547;50.774;12.918;2022-12-31T18:15:48;14.00;71.70
7014;DHT22;3547;50.774;12.918;2022-12-31T18:18:20;14.00;67.40
7014;DHT22;3547;50.774;12.918;2022-12-31T18:20:48;14.00;68.80
7014;DHT22;3547;50.774;12.918;2022-12-31T18:23:21;14.00;65.50
7014;DHT22;3547;50.774;12.918;2022-12-31T18:25:48;13.90;69.70
7014;DHT22;3547;50.774;12.918;2022-12-31T18:28:14;13.90;65.90
7014;DHT22;3547;50.774;12.918;2022-12-31T18:30:41;13.90;64.80
7014;DHT22;3547;50.774;12.918;2022-12-31T18:33:10;13.90;59.00
7014;DHT22;3547;50.774;12.918;2022-12-31T18:35:37;14.00;61.50
7014;DHT22;3547;50.774;12.918;2022-12-31T18:38:16;14.00;65.00
7014;DHT22;3547;50.774;12.918;2022-12-31T18:40:53;14.10;64.20
7014;DHT22;3547;50.774;12.918;2022-12-31T18:43:20;14.20;60.00
7014;DHT22;3547;50.774;12.918;2022-12-31T18:45:47;14.20;60.30
7014;DHT22;3547;50.774;12.918;2022-12-31T18:48:15;14.30;59.90
7014;DHT22;3547;50.774;12.918;2022-12-31T18:50:41;14.30;59.50
7014;DHT22;3547;50.774;12.918;2022-12-31T18:53:20;14.30;57.80
7014;DHT22;3547;50.774;12.918;2022-12-31T18:55:55;14.30;60.70
7014;DHT22;3547;50.774;12.918;2022-12-31T18:58:22;14.30;60.30
7014;DHT22;3547;50.774;12.918;2022-12-31T19:00:49;14.30;59.70
7014;DHT22;3547;50.774;12.918;2022-12-31T19:03:21;14.30;61.40
7014;DHT22;3547;50.774;12.918;2022-12-31T19:05:48;14.30;60.20
7014;DHT22;3547;50.774;12.918;2022-12-31T19:08:20;14.30;60.50
7014;DHT22;3547;50.774;12.918;2022-12-31T19:10:48;14.30;58.80
7014;DHT22;3547;50.774;12.918;2022-12-31T19:13:16;14.30;62.40
7014;DHT22;3547;50.774;12.918;2022-12-31T19:15:43;14.30;58.90
7014;DHT22;3547;50.774;12.918;2022-12-31T19:18:10;14.30;58.70
7014;DHT22;3547;50.774;12.918;2022-12-31T19:20:37;14.30;60.00
7014;DHT22;3547;50.774;12.918;2022-12-31T19:23:04;14.30;57.30
7014;DHT22;3547;50.774;12.918;2022-12-31T19:25:32;14.30;57.90
7014;DHT22;3547;50.774;12.918;2022-12-31T19:28:03;14.30;56.80
7014;DHT22;3547;50.774;12.918;2022-12-31T19:30:32;14.40;58.30
7014;DHT22;3547;50.774;12.918;2022-12-31T19:33:00;14.40;54.10
7014;DHT22;3547;50.774;12.918;2022-12-31T19:35:26;14.40;56.80
7014;DHT22;3547;50.774;12.918;2022-12-31T19:37:53;14.40;54.90
7014;DHT22;3547;50.774;12.918;2022-12-31T19:40:22;14.40;55.40
7014;DHT22;3547;50.774;12.918;2022-12-31T19:42:50;14.40;54.90
7014;DHT22;3547;50.774;12.918;2022-12-31T19:45:20;14.50;53.40
7014;DHT22;3547;50.774;12.918;2022-12-31T19:47:47;14.50;52.90
7014;DHT22;3547;50.774;12.918;2022-12-31T19:50:19;14.50;51.50
7014;DHT22;3547;50.774;12.918;2022-12-31T19:52:46;14.50;50.00
7014;DHT22;3547;50.774;12.918;2022-12-31T19:55:15;14.50;42.50
7014;DHT22;3547;50.774;12.918;2022-12-31T19:57:42;14.60;42.10
7014;DHT22;3547;50.774;12.918;2022-12-31T20:00:09;14.50;47.00
7014;DHT22;3547;50.774;12.918;2022-12-31T20:02:36;14.50;48.50
7014;DHT22;3547;50.774;12.918;2022-12-31T20:05:03;14.40;49.10
7014;DHT22;3547;50.774;12.918;2022-12-31T20:07:29;14.50;44.20
7014;DHT22;3547;50.774;12.918;2022-12-31T20:09:55;14.40;45.00
7014;DHT22;3547;50.774;12.918;2022-12-31T20:12:21;14.40;44.20
7014;DHT22;3547;50.774;12.918;2022-12-31T20:14:47;14.40;45.30
7014;DHT22;3547;50.774;12.918;2022-12-31T20:17:13;14.40;45.90
7014;DHT22;3547;50.774;12.918;2022-12-31T20:19:39;14.50;44.40
7014;DHT22;3547;50.774;12.918;2022-12-31T20:22:06;14.50;40.60
7014;DHT22;3547;50.774;12.918;2022-12-31T20:24:32;14.50;41.60
7014;DHT22;3547;50.774;12.918;2022-12-31T20:26:58;14.50;40.30
7014;DHT22;3547;50.774;12.918;2022-12-31T20:29:24;14.70;36.10
7014;DHT22;3547;50.774;12.918;2022-12-31T20:31:50;14.70;37.50
7014;DHT22;3547;50.774;12.918;2022-12-31T20:34:16;14.60;37.20
7014;DHT22;3547;50.774;12.918;2022-12-31T20:36:42;14.70;31.10